Time;durP1;ratioP1;P1;durP2;ratioP2;P2;SDS_P1;SDS_P2;PMS_P1;PMS_P2;Temp;Humidity;BMP_temperature;BMP_pressure;BME280_temperature;BME280_humidity;BME280_pressure;Samples;Min_cycle;Max_cycle;Signal;HPM_P1;HPM_P2
2021/10/21 00:00:30;;;;;;;3.95;2.67;;;17.80;77.80;;;;;;10414573;28;20025;-51
2021/10/21 00:05:30;;;;;;;5.85;3.58;;;17.80;77.80;;;;;;10414612;28;20045;-51
2021/10/21 00:10:31;;;;;;;6.45;3.45;;;17.80;77.80;;;;;;10412702;28;20513;-50
2021/10/21 00:15:32;;;;;;;3.40;2.60;;;17.80;77.80;;;;;;10408457;28;20076;-50
2021/10/21 00:20:33;;;;;;;6.43;3.10;;;17.80;77.70;;;;;;10413008;28;20032;-50
2021/10/21 00:25:34;;;;;;;5.45;3.25;;;17.80;77.70;;;;;;10413955;28;20128;-52
2021/10/21 00:30:34;;;;;;;5.68;2.95;;;17.80;77.70;;;;;;10414141;28;20076;-49
2021/10/21 00:35:35;;;;;;;4.80;3.20;;;17.70;77.60;;;;;;10413945;28;20514;-50
2021/10/21 00:40:36;;;;;;;3.70;2.67;;;17.70;77.60;;;;;;10414370;28;20041;-51
2021/10/21 00:45:36;;;;;;;3.08;2.20;;;17.80;77.70;;;;;;10413816;28;20124;-49
2021/10/21 00:50:38;;;;;;;4.18;3.05;;;17.80;77.70;;;;;;10413321;28;20117;-53
2021/10/21 00:55:38;;;;;;;4.38;2.38;;;17.70;77.60;;;;;;10405793;28;20068;-51
2021/10/21 01:00:39;;;;;;;3.22;2.47;;;17.70;77.60;;;;;;10413793;28;20468;-54
2021/10/21 01:05:40;;;;;;;3.17;2.47;;;17.70;77.60;;;;;;10413377;28;20504;-51
2021/10/21 01:10:41;;;;;;;4.20;3.22;;;17.70;77.60;;;;;;10418470;28;20539;-50
2021/10/21 01:15:42;;;;;;;4.38;3.00;;;17.70;77.60;;;;;;10421262;28;20462;-49
2021/10/21 01:20:42;;;;;;;4.40;3.08;;;17.70;77.80;;;;;;10420264;28;20078;-49
2021/10/21 01:25:43;;;;;;;4.53;2.83;;;17.70;77.70;;;;;;10420949;28;20047;-54
2021/10/21 01:30:44;;;;;;;4.53;2.78;;;17.70;77.60;;;;;;10420441;28;20069;-51
2021/10/21 01:35:44;;;;;;;3.20;2.35;;;17.70;77.70;;;;;;10420583;28;20104;-51
2021/10/21 01:40:46;;;;;;;4.03;2.50;;;17.70;77.60;;;;;;10420599;28;20486;-49
2021/10/21 01:45:47;;;;;;;3.92;2.83;;;17.70;77.50;;;;;;10420350;28;20037;-49
2021/10/21 01:50:48;;;;;;;3.28;2.55;;;17.70;77.50;;;;;;10426789;28;20032;-49
2021/10/21 01:55:49;;;;;;;4.03;2.92;;;17.70;77.40;;;;;;10417147;28;20030;-49
2021/10/21 02:00:49;;;;;;;4.03;2.58;;;17.70;77.30;;;;;;10419956;28;20104;-50
2021/10/21 02:05:50;;;;;;;4.10;2.90;;;17.70;77.20;;;;;;10419602;28;20493;-49
2021/10/21 02:10:51;;;;;;;3.03;2.20;;;17.70;77.20;;;;;;10417686;28;20057;-49
2021/10/21 02:15:52;;;;;;;3.80;2.35;;;17.70;77.20;;;;;;10418887;28;20034;-48
2021/10/21 02:20:52;;;;;;;4.18;2.63;;;17.70;77.20;;;;;;10418786;28;20394;-51
2021/10/21 02:25:53;;;;;;;3.15;1.95;;;17.70;77.20;;;;;;10418665;28;20069;-49
2021/10/21 02:30:54;;;;;;;3.25;2.05;;;17.70;77.20;;;;;;10418786;28;20072;-51
2021/10/21 02:35:54;;;;;;;3.58;2.08;;;17.60;77.10;;;;;;10418282;28;20033;-49
2021/10/21 02:40:55;;;;;;;3.28;2.17;;;17.60;77.10;;;;;;10418222;28;20061;-50
2021/10/21 02:45:56;;;;;;;3.30;1.92;;;17.60;77.10;;;;;;10418071;28;20414;-48
2021/10/21 02:50:57;;;;;;;2.97;2.00;;;17.60;77.10;;;;;;10424708;28;20057;-52
2021/10/21 02:55:57;;;;;;;3.15;2.35;;;17.60;77.10;;;;;;10417354;28;20474;-52
2021/10/21 03:00:58;;;;;;;3.25;2.30;;;17.60;77.10;;;;;;10417499;28;20037;-50
2021/10/21 03:05:59;;;;;;;2.97;2.28;;;17.60;77.10;;;;;;10417203;28;20033;-51
2021/10/21 03:11:00;;;;;;;4.43;2.20;;;17.60;77.00;;;;;;10417001;28;20065;-49
2021/10/21 03:16:01;;;;;;;3.10;2.17;;;17.60;77.10;;;;;;10416864;28;20143;-49
2021/10/21 03:21:01;;;;;;;4.20;2.47;;;17.60;77.10;;;;;;10416545;28;20120;-52
2021/10/21 03:26:02;;;;;;;4.35;2.17;;;17.60;77.10;;;;;;10416275;28;20072;-49
2021/10/21 03:31:03;;;;;;;4.88;2.58;;;17.60;77.00;;;;;;10415748;28;20398;-53
2021/10/21 03:36:04;;;;;;;3.38;2.15;;;17.60;77.00;;;;;;10413931;28;20104;-52
2021/10/21 03:41:05;;;;;;;3.13;2.00;;;17.60;77.10;;;;;;10406954;28;20045;-52
2021/10/21 03:46:05;;;;;;;3.33;2.30;;;17.60;77.00;;;;;;10415529;28;20037;-49
2021/10/21 03:51:06;;;;;;;3.22;1.75;;;17.60;77.00;;;;;;10421578;28;20057;-49
2021/10/21 03:56:09;;;;;;;2.45;1.80;;;17.60;77.00;;;;;;10413943;28;20108;-48
2021/10/21 04:01:09;;;;;;;2.65;2.08;;;17.60;77.60;;;;;;10414792;28;20121;-53
2021/10/21 04:06:10;;;;;;;3.53;1.88;;;17.60;76.90;;;;;;10414620;28;20542;-53
2021/10/21 04:11:11;;;;;;;2.65;1.73;;;17.60;77.00;;;;;;10413413;28;20032;-52
2021/10/21 04:16:11;;;;;;;3.80;2.00;;;17.60;77.10;;;;;;10413556;28;20486;-54
2021/10/21 04:21:12;;;;;;;1.42;1.27;;;17.50;76.90;;;;;;10414283;28;20463;-53
2021/10/21 04:26:13;;;;;;;3.30;1.98;;;17.50;76.80;;;;;;10413629;28;20497;-51
2021/10/21 04:31:13;;;;;;;2.35;1.73;;;17.50;76.90;;;;;;10413446;28;20045;-50
2021/10/21 04:36:14;;;;;;;3.10;2.40;;;17.50;76.90;;;;;;10413967;28;20516;-51
2021/10/21 04:41:15;;;;;;;3.47;1.40;;;17.50;76.80;;;;;;10413022;28;20405;-54
2021/10/21 04:46:15;;;;;;;3.35;1.70;;;17.70;76.30;;;;;;10418324;28;20497;-52
2021/10/21 04:51:16;;;;;;;3.00;1.90;;;17.90;75.50;;;;;;10422153;28;20493;-53
2021/10/21 04:56:17;;;;;;;3.00;1.92;;;18.20;74.70;;;;;;10421702;28;20087;-54
2021/10/21 05:01:17;;;;;;;5.65;1.85;;;18.40;74.40;;;;;;10421136;28;20493;-54
2021/10/21 05:06:18;;;;;;;5.68;1.80;;;18.50;74.80;;;;;;10422404;28;20064;-54
2021/10/21 05:11:19;;;;;;;9.52;2.22;;;18.50;75.90;;;;;;10420032;28;20108;-54
2021/10/21 05:16:19;;;;;;;7.45;1.98;;;18.60;75.70;;;;;;10416301;28;20022;-48
2021/10/21 05:21:20;;;;;;;4.20;1.83;;;18.60;75.20;;;;;;10421072;28;20044;-51
2021/10/21 05:26:21;;;;;;;4.65;1.73;;;18.60;75.80;;;;;;10410372;28;20026;-48
2021/10/21 05:31:22;;;;;;;5.22;2.05;;;18.60;75.80;;;;;;10419992;28;20053;-53
2021/10/21 05:36:22;;;;;;;4.10;1.38;;;18.60;76.00;;;;;;10420740;28;20481;-57
2021/10/21 05:41:23;;;;;;;6.07;1.75;;;18.50;75.80;;;;;;10420311;28;20109;-57
2021/10/21 05:46:24;;;;;;;6.35;1.48;;;18.50;75.70;;;;;;10420259;28;20037;-57
2021/10/21 05:51:26;;;;;;;4.80;1.75;;;18.30;75.60;;;;;;10425747;28;20052;-57
2021/10/21 05:56:26;;;;;;;6.03;1.50;;;18.30;75.60;;;;;;10418306;28;20079;-56
2021/10/21 06:01:27;;;;;;;4.50;1.52;;;18.30;75.60;;;;;;10418239;28;20069;-57
2021/10/21 06:06:32;;;;;;;12.93;1.95;;;18.20;76.00;;;;;;10418297;28;20057;-57
2021/10/21 06:11:36;;;;;;;6.43;1.55;;;18.30;75.80;;;;;;10408755;28;20045;-55
2021/10/21 06:16:37;;;;;;;4.55;1.30;;;18.20;75.90;;;;;;10383429;28;20487;-55
2021/10/21 06:21:37;;;;;;;4.75;1.08;;;18.20;76.30;;;;;;10415166;28;20033;-55
2021/10/21 06:26:38;;;;;;;4.40;1.38;;;18.20;76.40;;;;;;10412553;28;20474;-54
2021/10/21 06:31:39;;;;;;;6.60;1.95;;;18.20;76.50;;;;;;10412696;28;20744;-53
2021/10/21 06:36:40;;;;;;;5.93;1.65;;;18.10;76.50;;;;;;10405490;28;20025;-54
2021/10/21 06:41:41;;;;;;;4.40;1.85;;;18.20;76.40;;;;;;10415735;28;20026;-53
2021/10/21 06:46:42;;;;;;;6.72;1.35;;;18.20;76.40;;;;;;10414743;28;20129;-55
2021/10/21 06:51:42;;;;;;;6.25;2.15;;;18.10;76.40;;;;;;10415424;28;20037;-53
2021/10/21 06:56:43;;;;;;;7.82;1.45;;;18.20;76.60;;;;;;10414865;28;20053;-52
2021/10/21 07:01:44;;;;;;;5.15;1.58;;;18.20;76.60;;;;;;10415182;28;20065;-55
2021/10/21 07:06:44;;;;;;;4.82;1.67;;;18.10;76.70;;;;;;10416601;28;20037;-53
2021/10/21 07:11:45;;;;;;;3.58;1.63;;;18.10;76.60;;;;;;10414803;28;20069;-53
2021/10/21 07:16:46;;;;;;;2.70;1.52;;;18.10;76.50;;;;;;10416166;28;20434;-48
2021/10/21 07:21:46;;;;;;;5.47;1.95;;;18.10;76.60;;;;;;10410956;28;20037;-53
2021/10/21 07:26:47;;;;;;;4.85;1.40;;;18.10;76.70;;;;;;10401841;28;20033;-55
2021/10/21 07:31:48;;;;;;;2.25;1.23;;;18.10;76.70;;;;;;10411472;28;20501;-53
2021/10/21 07:36:48;;;;;;;2.58;1.25;;;18.10;76.70;;;;;;10414210;28;20049;-53
2021/10/21 07:41:50;;;;;;;2.53;1.30;;;18.10;76.70;;;;;;10414645;28;20034;-56
2021/10/21 07:46:51;;;;;;;6.30;1.50;;;18.10;76.80;;;;;;10415093;28;20563;-53
2021/10/21 07:51:52;;;;;;;4.47;1.38;;;18.00;77.40;;;;;;10413782;28;20022;-55
2021/10/21 07:56:53;;;;;;;3.25;1.15;;;18.00;76.90;;;;;;10414265;28;20036;-54
2021/10/21 08:01:58;;;;;;;3.78;1.35;;;18.10;76.70;;;;;;10414486;28;20037;-55
2021/10/21 08:07:00;;;;;;;5.80;1.38;;;18.10;76.70;;;;;;10414460;28;20060;-55
2021/10/21 08:12:04;;;;;;;2.30;1.10;;;18.10;76.50;;;;;;10408029;28;20099;-55
2021/10/21 08:17:05;;;;;;;3.75;1.10;;;18.10;76.50;;;;;;10413487;28;20036;-56
2021/10/21 08:22:05;;;;;;;3.42;1.40;;;18.10;76.50;;;;;;10413719;28;20033;-51
2021/10/21 08:27:06;;;;;;;3.03;1.23;;;18.20;76.50;;;;;;10413369;28;20111;-55
2021/10/21 08:32:11;;;;;;;2.47;1.27;;;18.20;76.30;;;;;;10408551;28;20117;-55
2021/10/21 08:37:13;;;;;;;4.57;1.38;;;18.20;76.30;;;;;;10419788;28;20056;-53
2021/10/21 08:42:16;;;;;;;2.90;1.10;;;18.20;76.20;;;;;;10411501;28;20136;-56
2021/10/21 08:47:19;;;;;;;3.95;1.23;;;18.20;76.50;;;;;;10413312;28;20029;-56
2021/10/21 08:52:21;;;;;;;2.92;1.13;;;18.20;76.40;;;;;;10422994;28;20528;-56
2021/10/21 08:57:21;;;;;;;2.80;1.10;;;18.20;76.50;;;;;;10412991;28;20057;-56
2021/10/21 09:02:33;;;;;;;2.95;1.30;;;18.20;76.60;;;;;;10406302;28;20072;-55
2021/10/21 09:12:53;;;;;;;5.60;1.47;;;18.10;76.50;;;;;;10409875;28;20482;-55
2021/10/21 09:17:54;;;;;;;3.03;1.27;;;18.10;76.60;;;;;;10410521;28;20033;-56
2021/10/21 09:23:05;;;;;;;4.60;1.30;;;18.10;76.50;;;;;;10412325;28;20436;-57
2021/10/21 09:28:17;;;;;;;3.42;1.52;;;18.10;76.60;;;;;;10409830;28;20043;-56
2021/10/21 09:33:18;;;;;;;3.70;1.33;;;18.10;77.00;;;;;;10415394;28;20405;-56
2021/10/21 09:38:19;;;;;;;3.20;1.38;;;18.10;76.80;;;;;;10419770;28;20040;-56
2021/10/21 09:43:32;;;;;;;3.65;1.40;;;18.10;76.90;;;;;;10415291;28;20144;-56
2021/10/21 09:48:32;;;;;;;2.83;1.33;;;18.10;76.70;;;;;;10421910;28;20501;-56
2021/10/21 09:53:33;;;;;;;5.68;1.30;;;18.00;76.60;;;;;;10425861;28;20034;-56
2021/10/21 09:58:41;;;;;;;3.00;1.05;;;17.90;76.60;;;;;;10418637;28;20224;-56
2021/10/21 10:03:47;;;;;;;2.50;0.98;;;17.90;76.60;;;;;;10416401;28;20685;-56
2021/10/21 10:08:48;;;;;;;3.78;1.85;;;17.90;76.70;;;;;;10411917;28;20050;-56
2021/10/21 10:13:50;;;;;;;4.13;1.20;;;17.90;76.50;;;;;;10417287;28;20108;-57
2021/10/21 10:18:51;;;;;;;3.38;1.45;;;17.90;76.20;;;;;;10417117;28;20433;-56
2021/10/21 10:24:11;;;;;;;6.18;1.30;;;18.10;76.00;;;;;;10399232;28;20030;-55
2021/10/21 10:29:43;;;;;;;3.67;1.25;;;18.10;76.00;;;;;;10415645;28;20060;-55
2021/10/21 10:34:43;;;;;;;2.95;1.40;;;18.10;76.10;;;;;;10404324;28;20025;-53
2021/10/21 10:40:02;;;;;;;1.65;1.00;;;18.10;76.10;;;;;;10416904;28;20470;-55
2021/10/21 10:45:10;;;;;;;3.70;1.17;;;18.20;76.20;;;;;;10397836;28;20037;-56
2021/10/21 10:50:22;;;;;;;3.15;1.10;;;18.20;76.40;;;;;;10419455;28;20164;-55
2021/10/21 10:55:35;;;;;;;4.07;1.33;;;18.20;76.30;;;;;;10416836;28;20025;-54
2021/10/21 11:00:48;;;;;;;4.20;1.40;;;18.20;76.30;;;;;;10412553;28;20520;-55
2021/10/21 11:05:51;;;;;;;4.50;1.58;;;18.10;76.50;;;;;;10416394;28;20136;-54
2021/10/21 11:10:55;;;;;;;4.72;1.40;;;18.10;76.60;;;;;;10416303;28;20037;-55
2021/10/21 11:15:56;;;;;;;4.22;1.17;;;18.00;76.50;;;;;;10412039;28;20435;-53
2021/10/21 11:20:58;;;;;;;3.75;1.08;;;18.00;77.20;;;;;;10401321;28;20029;-55
2021/10/21 11:26:02;;;;;;;3.60;1.10;;;18.00;76.80;;;;;;10415892;28;20370;-54
2021/10/21 11:31:07;;;;;;;4.20;1.20;;;18.00;76.60;;;;;;10395711;28;20121;-51
2021/10/21 11:36:10;;;;;;;5.05;1.73;;;18.00;76.60;;;;;;10387223;28;20080;-51
2021/10/21 11:41:10;;;;;;;3.35;1.80;;;18.00;76.60;;;;;;10414809;28;20061;-53
2021/10/21 11:46:13;;;;;;;4.05;1.05;;;18.00;76.70;;;;;;10414223;28;20457;-55
2021/10/21 11:51:14;;;;;;;6.90;1.70;;;18.00;76.60;;;;;;10403755;28;20668;-54
2021/10/21 11:56:19;;;;;;;3.50;1.42;;;18.00;76.60;;;;;;10410243;28;20029;-53
2021/10/21 12:01:24;;;;;;;4.53;0.80;;;18.00;76.60;;;;;;10407773;28;20082;-56
2021/10/21 12:06:28;;;;;;;4.10;0.98;;;18.00;76.70;;;;;;10413712;28;20041;-55
2021/10/21 12:11:29;;;;;;;3.25;1.15;;;18.00;76.30;;;;;;10411248;28;20029;-56
2021/10/21 12:16:30;;;;;;;6.90;1.20;;;18.00;76.50;;;;;;10409879;28;20053;-55
2021/10/21 12:21:37;;;;;;;3.55;0.80;;;18.10;76.50;;;;;;10388606;28;20045;-54
2021/10/21 12:26:38;;;;;;;5.20;2.22;;;18.00;76.40;;;;;;10411978;28;20041;-54
2021/10/21 12:31:41;;;;;;;2.88;1.38;;;18.00;76.40;;;;;;10410199;28;20142;-54
2021/10/21 12:36:47;;;;;;;5.28;1.35;;;18.00;76.40;;;;;;10407962;28;20501;-53
2021/10/21 12:42:07;;;;;;;8.30;1.10;;;17.90;76.90;;;;;;10398598;28;20075;-53
2021/10/21 12:47:22;;;;;;;5.45;1.65;;;17.90;77.20;;;;;;10409778;28;20033;-52
2021/10/21 12:52:25;;;;;;;3.70;1.00;;;17.90;77.30;;;;;;10415620;28;20057;-54
2021/10/21 12:57:26;;;;;;;3.88;0.88;;;17.90;77.20;;;;;;10427470;28;20025;-55
2021/10/21 13:02:27;;;;;;;3.25;1.52;;;17.90;77.10;;;;;;10410454;28;20385;-52
2021/10/21 13:07:28;;;;;;;5.60;1.42;;;18.00;77.10;;;;;;10415852;28;20105;-53
2021/10/21 13:12:29;;;;;;;5.38;1.10;;;17.90;77.00;;;;;;10419881;28;20033;-53
2021/10/21 13:17:30;;;;;;;5.68;1.00;;;17.90;77.10;;;;;;10418450;28;20057;-52
2021/10/21 13:22:30;;;;;;;4.65;1.40;;;17.90;77.10;;;;;;10419509;28;20052;-54
2021/10/21 13:27:31;;;;;;;2.95;0.82;;;17.90;77.10;;;;;;10409342;28;20513;-53
2021/10/21 13:32:33;;;;;;;5.18;0.90;;;17.90;77.10;;;;;;10415302;28;20053;-54
2021/10/21 13:37:34;;;;;;;3.38;1.00;;;17.90;76.90;;;;;;10420273;28;20363;-54
2021/10/21 13:42:34;;;;;;;2.05;0.70;;;17.90;76.60;;;;;;10419759;28;20034;-54
2021/10/21 13:47:37;;;;;;;4.65;1.52;;;17.90;76.60;;;;;;10419943;28;20068;-54
2021/10/21 13:52:38;;;;;;;2.47;0.93;;;17.80;76.50;;;;;;10428578;28;20036;-55
2021/10/21 13:57:39;;;;;;;2.40;1.10;;;17.90;76.40;;;;;;10419130;28;20480;-53
2021/10/21 14:02:40;;;;;;;3.60;1.10;;;17.90;76.20;;;;;;10419143;28;20509;-51
2021/10/21 14:07:41;;;;;;;3.22;0.93;;;17.90;76.10;;;;;;10417572;28;20041;-54
2021/10/21 14:12:42;;;;;;;3.90;0.75;;;17.90;76.10;;;;;;10418782;28;20025;-54
2021/10/21 14:17:43;;;;;;;4.18;0.70;;;17.90;76.00;;;;;;10417918;28;20017;-53
2021/10/21 14:22:43;;;;;;;2.63;1.15;;;18.00;75.70;;;;;;10418233;28;20061;-53
2021/10/21 14:27:44;;;;;;;2.03;0.90;;;18.00;75.50;;;;;;10407557;28;20038;-53
2021/10/21 14:32:45;;;;;;;3.53;1.08;;;18.10;75.10;;;;;;10407257;28;20037;-59
2021/10/21 14:37:46;;;;;;;3.67;1.20;;;18.20;74.60;;;;;;10415645;28;20477;-55
2021/10/21 14:42:47;;;;;;;2.45;0.85;;;18.20;74.60;;;;;;10417421;28;20033;-49
2021/10/21 14:47:48;;;;;;;6.45;1.95;;;18.20;74.70;;;;;;10416212;28;20057;-47
2021/10/21 14:52:50;;;;;;;3.70;1.08;;;18.20;74.80;;;;;;10417032;28;20036;-52
2021/10/21 14:57:51;;;;;;;8.40;1.42;;;18.20;74.80;;;;;;10417061;28;20490;-52
2021/10/21 15:02:52;;;;;;;4.85;1.20;;;18.20;74.80;;;;;;10416778;28;20030;-50
2021/10/21 15:08:03;;;;;;;6.90;2.20;;;18.30;76.00;;;;;;10406820;28;20036;-49
2021/10/21 15:23:43;;;;;;;6.20;1.92;;;18.30;74.60;;;;;;10406377;28;20049;-54
2021/10/21 15:28:44;;;;;;;4.65;1.45;;;18.40;74.40;;;;;;10414008;28;20041;-51
2021/10/21 15:33:45;;;;;;;7.57;1.63;;;18.40;74.30;;;;;;10412284;28;20386;-53
2021/10/21 15:38:55;;;;;;;7.40;1.80;;;18.40;74.50;;;;;;10413847;28;20040;-55
2021/10/21 15:44:06;;;;;;;9.13;1.55;;;18.30;74.80;;;;;;10414589;28;20087;-53
2021/10/21 16:10:47;;;;;;;19.08;6.18;;;18.60;75.10;;;;;;10413875;28;20053;-54
2021/10/21 16:15:48;;;;;;;19.27;4.85;;;18.80;74.90;;;;;;10408385;28;20569;-53
2021/10/21 16:20:51;;;;;;;15.52;5.70;;;18.80;75.00;;;;;;10411975;28;20061;-55
2021/10/21 16:26:05;;;;;;;18.30;5.40;;;18.80;74.70;;;;;;10411114;28;20049;-54
2021/10/21 16:31:06;;;;;;;18.25;6.10;;;18.70;74.70;;;;;;10410867;28;20128;-55
2021/10/21 16:36:08;;;;;;;13.88;3.80;;;18.60;75.00;;;;;;10413863;28;20111;-54
2021/10/21 16:41:09;;;;;;;14.70;4.55;;;18.50;75.20;;;;;;10411855;28;20029;-55
2021/10/21 16:46:09;;;;;;;10.88;4.10;;;18.40;75.30;;;;;;10402792;28;20100;-54
2021/10/21 16:51:10;;;;;;;10.82;3.42;;;18.40;75.50;;;;;;10414805;28;20114;-55
2021/10/21 16:56:12;;;;;;;22.27;4.18;;;18.30;75.60;;;;;;10412737;28;20072;-55
2021/10/21 17:01:14;;;;;;;8.88;3.17;;;18.30;75.70;;;;;;10410085;28;20060;-54
2021/10/21 17:06:19;;;;;;;11.38;4.00;;;18.20;75.60;;;;;;10412926;28;20104;-54
2021/10/21 17:11:20;;;;;;;10.68;3.63;;;18.20;75.70;;;;;;10409853;28;20116;-53
2021/10/21 17:16:21;;;;;;;9.15;3.03;;;18.20;75.80;;;;;;10411770;28;20030;-53
2021/10/21 17:21:22;;;;;;;13.85;3.78;;;18.20;76.40;;;;;;10410588;28;20522;-51
2021/10/21 17:26:22;;;;;;;13.55;3.40;;;18.20;76.30;;;;;;10401183;28;20038;-53
2021/10/21 17:31:23;;;;;;;16.10;4.30;;;18.20;76.20;;;;;;10408144;28;20048;-53
2021/10/21 17:36:24;;;;;;;12.23;2.90;;;18.10;75.90;;;;;;10380262;28;20037;-54
2021/10/21 17:41:26;;;;;;;9.55;3.38;;;18.00;75.70;;;;;;10412102;28;20473;-51
2021/10/21 17:46:27;;;;;;;9.90;3.20;;;18.00;76.00;;;;;;10412859;28;20362;-53
2021/10/21 17:51:28;;;;;;;14.82;4.63;;;18.00;75.80;;;;;;10413403;28;20030;-51
2021/10/21 17:56:29;;;;;;;7.55;3.00;;;17.90;75.60;;;;;;10401070;28;20702;-52
2021/10/21 18:01:30;;;;;;;10.02;2.83;;;17.90;75.50;;;;;;10415631;28;20045;-53
2021/10/21 18:06:35;;;;;;;10.60;3.00;;;17.90;75.50;;;;;;10413937;28;20034;-52
2021/10/21 18:11:36;;;;;;;6.97;2.55;;;17.90;75.30;;;;;;10417224;28;20029;-52
2021/10/21 18:16:36;;;;;;;9.95;2.85;;;18.00;74.90;;;;;;10388032;28;20022;-51
2021/10/21 18:21:38;;;;;;;8.68;2.80;;;18.00;74.80;;;;;;10394910;28;20034;-53
2021/10/21 18:26:39;;;;;;;6.25;2.33;;;18.00;74.60;;;;;;10417712;28;20445;-50
2021/10/21 18:31:40;;;;;;;10.15;2.97;;;18.10;74.50;;;;;;10417829;28;20107;-52
2021/10/21 18:36:42;;;;;;;9.38;2.70;;;18.10;74.10;;;;;;10418665;28;20026;-51
2021/10/21 18:41:45;;;;;;;8.88;2.47;;;18.10;74.20;;;;;;10411636;28;20470;-51
2021/10/21 18:46:45;;;;;;;7.10;2.28;;;18.10;74.10;;;;;;10417034;28;20456;-53
2021/10/21 18:51:46;;;;;;;5.90;2.35;;;18.10;73.90;;;;;;10419551;28;20116;-54
2021/10/21 18:56:47;;;;;;;8.05;2.90;;;18.10;74.00;;;;;;10416480;28;20071;-55
2021/10/21 19:01:48;;;;;;;9.02;2.80;;;18.20;74.50;;;;;;10416314;28;20132;-55
2021/10/21 19:06:50;;;;;;;7.40;2.70;;;18.20;74.00;;;;;;10416083;28;20035;-46
2021/10/21 19:11:51;;;;;;;9.13;2.28;;;18.30;74.10;;;;;;10417081;28;20034;-47
2021/10/21 19:16:53;;;;;;;7.95;2.10;;;18.20;74.00;;;;;;10405026;28;20056;-57
2021/10/21 19:21:53;;;;;;;6.13;2.42;;;18.10;73.90;;;;;;10403494;28;20095;-57
2021/10/21 19:26:54;;;;;;;8.90;2.83;;;18.00;73.90;;;;;;10411370;28;20049;-57
2021/10/21 19:31:55;;;;;;;4.03;1.73;;;18.00;74.00;;;;;;10412944;28;20130;-56
2021/10/21 19:36:55;;;;;;;7.97;2.35;;;17.90;74.00;;;;;;11651664;22;20081;-54
2021/10/21 19:41:57;;;;;;;7.10;2.42;;;17.90;74.00;;;;;;10362480;28;20038;-55
2021/10/21 19:46:58;;;;;;;7.88;2.47;;;17.90;74.30;;;;;;10358817;28;20034;-55
2021/10/21 19:51:59;;;;;;;8.10;2.83;;;17.90;74.70;;;;;;10364803;28;20189;-56
2021/10/21 19:56:59;;;;;;;7.45;2.75;;;17.80;74.70;;;;;;10359162;28;20022;-55
2021/10/21 20:02:00;;;;;;;6.03;1.83;;;17.80;74.80;;;;;;10371704;28;20053;-56
2021/10/21 20:07:01;;;;;;;5.25;2.25;;;17.80;74.70;;;;;;10370439;28;20120;-56
2021/10/21 20:12:04;;;;;;;6.78;2.78;;;17.70;74.40;;;;;;10373224;28;20488;-56
2021/10/21 20:17:04;;;;;;;5.72;3.08;;;17.70;74.30;;;;;;10372117;28;20033;-56
2021/10/21 20:22:08;;;;;;;6.13;2.20;;;17.70;74.40;;;;;;10342733;28;20380;-56
2021/10/21 20:27:09;;;;;;;8.95;2.40;;;17.70;74.50;;;;;;10341869;28;20053;-56
2021/10/21 20:32:09;;;;;;;3.22;1.75;;;17.60;74.60;;;;;;10366108;28;20030;-56
2021/10/21 20:37:12;;;;;;;4.60;2.17;;;17.60;74.80;;;;;;10370999;28;20125;-55
2021/10/21 20:42:13;;;;;;;5.82;1.95;;;17.60;74.80;;;;;;10371234;28;20389;-56
2021/10/21 20:47:14;;;;;;;7.53;2.67;;;17.50;74.70;;;;;;10372050;28;20033;-56
2021/10/21 20:52:15;;;;;;;4.38;1.60;;;17.50;74.80;;;;;;10362455;28;20030;-56
2021/10/21 20:57:16;;;;;;;6.35;2.03;;;17.50;74.80;;;;;;10340804;28;20022;-56
2021/10/21 21:02:19;;;;;;;5.97;2.10;;;17.50;74.90;;;;;;10331498;28;20038;-54
2021/10/21 21:07:20;;;;;;;8.68;2.53;;;17.50;74.90;;;;;;10338459;28;20030;-55
2021/10/21 21:12:21;;;;;;;4.80;1.65;;;17.40;74.90;;;;;;10368565;28;20144;-56
2021/10/21 21:17:21;;;;;;;8.90;2.05;;;17.40;74.80;;;;;;10371524;28;20129;-55
2021/10/21 21:22:23;;;;;;;3.53;1.60;;;17.40;74.90;;;;;;10386986;28;20044;-54
2021/10/21 21:27:24;;;;;;;4.45;1.90;;;17.40;74.90;;;;;;10342218;28;20034;-56
2021/10/21 21:32:26;;;;;;;3.60;1.55;;;17.40;74.90;;;;;;10376485;28;20473;-55
2021/10/21 21:37:26;;;;;;;4.10;1.50;;;17.40;74.90;;;;;;10361933;28;20042;-56
2021/10/21 21:42:27;;;;;;;4.68;1.63;;;17.40;74.70;;;;;;10338365;28;20058;-56
2021/10/21 21:47:28;;;;;;;3.72;1.50;;;17.50;74.60;;;;;;10339209;28;20047;-55
2021/10/21 21:52:31;;;;;;;3.28;1.30;;;17.40;74.50;;;;;;10376142;28;20441;-56
2021/10/21 21:57:31;;;;;;;3.90;1.30;;;17.40;74.50;;;;;;10378051;28;20034;-55
2021/10/21 22:02:32;;;;;;;4.35;1.65;;;17.40;74.50;;;;;;10367554;28;20439;-56
2021/10/21 22:07:33;;;;;;;4.05;1.85;;;17.50;74.30;;;;;;10335954;28;20113;-56
2021/10/21 22:12:34;;;;;;;4.43;1.40;;;17.60;73.90;;;;;;10360608;28;20041;-56
2021/10/21 22:17:37;;;;;;;3.90;1.13;;;17.60;73.80;;;;;;10375753;28;20071;-56
2021/10/21 22:22:38;;;;;;;4.75;1.60;;;17.60;73.80;;;;;;10354968;28;20038;-56
2021/10/21 22:27:38;;;;;;;3.47;1.23;;;17.50;73.90;;;;;;10353665;28;20405;-56
2021/10/21 22:32:40;;;;;;;3.63;1.80;;;17.50;73.90;;;;;;10354108;28;20682;-56
2021/10/21 22:37:42;;;;;;;2.85;1.30;;;17.50;74.00;;;;;;10354720;28;20043;-55
2021/10/21 22:42:43;;;;;;;3.95;1.80;;;17.50;74.00;;;;;;10335740;28;20494;-56
2021/10/21 22:47:44;;;;;;;6.07;2.65;;;17.50;74.00;;;;;;10335634;28;20168;-54
2021/10/21 22:52:45;;;;;;;1.95;1.10;;;17.50;74.10;;;;;;10342831;28;20533;-56
2021/10/21 22:58:00;;;;;;;2.72;1.02;;;17.50;74.10;;;;;;10375614;28;20141;-55
2021/10/21 23:03:08;;;;;;;2.38;1.10;;;17.40;74.10;;;;;;10337819;28;20037;-56
2021/10/21 23:08:10;;;;;;;4.03;1.80;;;17.40;74.10;;;;;;10334933;28;20130;-56
2021/10/21 23:13:12;;;;;;;2.95;1.00;;;17.40;74.10;;;;;;10333974;28;20034;-56
2021/10/21 23:18:12;;;;;;;3.20;1.17;;;17.40;74.10;;;;;;10369347;28;20034;-56
2021/10/21 23:23:13;;;;;;;4.10;1.50;;;17.50;73.70;;;;;;10375123;28;20029;-56
2021/10/21 23:28:14;;;;;;;3.00;1.27;;;17.50;73.60;;;;;;10356987;28;20045;-56
2021/10/21 23:33:15;;;;;;;2.95;0.95;;;17.50;73.60;;;;;;10374002;28;20073;-56
2021/10/21 23:38:16;;;;;;;3.42;0.90;;;17.50;73.70;;;;;;10374273;28;20191;-56
2021/10/21 23:43:17;;;;;;;4.72;1.38;;;17.50;73.70;;;;;;10374187;28;20528;-56
2021/10/21 23:48:18;;;;;;;2.53;0.95;;;17.60;73.40;;;;;;10373987;28;20030;-56
2021/10/21 23:53:18;;;;;;;2.47;1.15;;;17.60;73.10;;;;;;10372424;28;20120;-56
2021/10/21 23:58:19;;;;;;;2.20;0.75;;;17.70;72.90;;;;;;10337279;28;20057;-56
